Time;durP1;ratioP1;P1;durP2;ratioP2;P2;SDS_P1;SDS_P2;PMS_P1;PMS_P2;Temp;Humidity;BMP_temperature;BMP_pressure;BME280_temperature;BME280_humidity;BME280_pressure;Samples;Min_cycle;Max_cycle;Signal;HPM_P1;HPM_P2
2023/06/17 00:00:08;;;;;;;4.33;3.37;;;21.40;42.50;;;;;;4990034;28;20572;-80
2023/06/17 00:02:34;;;;;;;3.20;2.60;;;21.40;42.70;;;;;;4989715;28;20578;-79
2023/06/17 00:05:02;;;;;;;3.30;3.00;;;21.40;42.80;;;;;;4990248;28;21009;-79
2023/06/17 00:07:28;;;;;;;4.07;2.67;;;21.30;42.90;;;;;;4989158;28;20721;-79
2023/06/17 00:09:54;;;;;;;4.30;3.30;;;21.30;43.00;;;;;;4988659;28;20614;-79
2023/06/17 00:12:21;;;;;;;3.80;2.87;;;21.30;43.00;;;;;;4991901;28;20604;-79
2023/06/17 00:14:47;;;;;;;3.00;2.60;;;21.20;43.00;;;;;;4993464;28;20590;-79
2023/06/17 00:17:14;;;;;;;4.17;2.90;;;21.20;43.10;;;;;;4993146;28;20989;-79
2023/06/17 00:19:40;;;;;;;3.57;3.27;;;21.10;43.20;;;;;;4994557;28;20574;-78
2023/06/17 00:22:08;;;;;;;4.80;2.70;;;21.10;43.20;;;;;;4993186;28;20601;-78
2023/06/17 00:24:34;;;;;;;4.13;2.87;;;21.10;43.40;;;;;;4994365;28;20637;-79
2023/06/17 00:27:00;;;;;;;4.10;3.40;;;21.00;43.40;;;;;;4992181;28;20614;-79
2023/06/17 00:29:26;;;;;;;4.57;2.63;;;21.00;43.60;;;;;;4993013;28;20621;-79
2023/06/17 00:31:56;;;;;;;4.10;2.90;;;20.90;43.60;;;;;;4992846;28;21161;-80
2023/06/17 00:34:21;;;;;;;3.60;2.90;;;20.90;43.70;;;;;;4975979;28;20179;-79
2023/06/17 00:36:47;;;;;;;4.37;2.57;;;20.80;43.80;;;;;;4987878;28;20625;-78
2023/06/17 00:39:15;;;;;;;4.03;2.97;;;20.80;43.90;;;;;;5013117;28;20210;-80
2023/06/17 00:41:41;;;;;;;3.50;2.30;;;20.80;44.00;;;;;;5012938;28;20174;-80
2023/06/17 00:44:06;;;;;;;3.90;2.73;;;20.70;44.10;;;;;;5012915;28;20912;-81
2023/06/17 00:46:43;;;;;;;5.10;3.17;;;20.70;44.20;;;;;;5014469;28;20682;-80
2023/06/17 00:49:10;;;;;;;3.40;2.70;;;20.70;44.50;;;;;;5012979;28;20588;-80
2023/06/17 00:51:37;;;;;;;4.13;3.60;;;20.60;44.20;;;;;;5014113;28;20589;-80
2023/06/17 00:54:03;;;;;;;7.20;3.57;;;20.60;44.30;;;;;;4996296;28;20628;-81
2023/06/17 00:56:33;;;;;;;3.87;3.43;;;20.60;44.50;;;;;;4996624;28;20662;-81
2023/06/17 00:59:01;;;;;;;4.53;4.13;;;20.60;44.70;;;;;;5012673;28;20740;-80
2023/06/17 01:01:29;;;;;;;4.40;3.43;;;20.60;44.80;;;;;;5012424;28;20596;-80
2023/06/17 01:03:56;;;;;;;5.00;3.60;;;20.50;44.80;;;;;;5012659;28;20573;-80
2023/06/17 01:06:37;;;;;;;5.07;4.13;;;20.50;45.00;;;;;;4995555;28;20633;-80
2023/06/17 01:09:09;;;;;;;3.97;3.23;;;20.40;45.40;;;;;;4994303;28;20728;-80
2023/06/17 01:11:38;;;;;;;4.57;4.13;;;20.50;45.30;;;;;;4994140;28;20582;-80
2023/06/17 01:14:05;;;;;;;5.57;3.23;;;20.40;45.40;;;;;;4992936;28;20604;-80
2023/06/17 01:16:32;;;;;;;5.50;3.80;;;20.40;45.40;;;;;;4976226;28;20617;-80
2023/06/17 01:18:59;;;;;;;5.17;3.20;;;20.30;45.50;;;;;;4993016;28;20704;-80
2023/06/17 01:21:28;;;;;;;4.27;3.60;;;20.30;45.60;;;;;;4992090;28;20640;-80
2023/06/17 01:23:58;;;;;;;4.90;4.17;;;20.30;45.90;;;;;;5007994;28;20598;-80
2023/06/17 01:26:24;;;;;;;5.90;3.67;;;20.30;45.90;;;;;;4981935;28;20619;-80
2023/06/17 01:28:50;;;;;;;4.30;3.13;;;20.30;46.10;;;;;;4998203;28;20610;-80
2023/06/17 01:31:49;;;;;;;4.63;3.83;;;20.20;46.10;;;;;;5001919;28;20656;-80
2023/06/17 01:34:18;;;;;;;6.13;4.00;;;20.20;46.90;;;;;;5012107;28;20597;-80
2023/06/17 01:36:46;;;;;;;4.20;3.03;;;20.20;46.30;;;;;;4993852;28;20637;-80
2023/06/17 01:39:16;;;;;;;3.87;3.00;;;20.10;46.20;;;;;;4976435;28;20935;-80
2023/06/17 01:41:53;;;;;;;4.47;3.30;;;20.10;46.50;;;;;;4975780;28;20681;-80
2023/06/17 01:44:20;;;;;;;4.23;3.40;;;20.10;46.80;;;;;;4978222;28;20677;-80
2023/06/17 01:46:46;;;;;;;3.90;3.10;;;20.00;46.60;;;;;;4995582;28;21207;-79
2023/06/17 01:49:12;;;;;;;4.13;3.73;;;20.00;46.70;;;;;;5011642;28;20631;-80
2023/06/17 01:51:38;;;;;;;9.33;3.90;;;20.00;46.70;;;;;;5011332;28;20556;-79
2023/06/17 01:54:04;;;;;;;3.63;3.10;;;20.00;46.80;;;;;;5011432;28;20660;-80
2023/06/17 01:56:31;;;;;;;3.67;3.17;;;19.90;46.80;;;;;;5012041;28;20248;-80
2023/06/17 01:58:57;;;;;;;3.33;2.70;;;19.90;46.90;;;;;;5011540;28;20637;-80
2023/06/17 02:01:23;;;;;;;4.30;3.00;;;19.90;46.90;;;;;;4995182;28;20700;-80
2023/06/17 02:03:49;;;;;;;5.90;3.80;;;19.80;47.60;;;;;;4995075;28;20590;-80
2023/06/17 02:06:16;;;;;;;4.00;3.30;;;19.80;47.10;;;;;;4995382;28;20253;-80
2023/06/17 02:08:42;;;;;;;4.40;3.50;;;19.80;47.30;;;;;;5011301;28;20585;-80
2023/06/17 02:11:07;;;;;;;4.20;3.57;;;19.70;47.30;;;;;;4995088;28;21014;-80
2023/06/17 02:13:33;;;;;;;12.30;3.40;;;19.60;47.20;;;;;;4995079;28;20663;-80
2023/06/17 02:15:59;;;;;;;5.73;3.30;;;19.70;47.40;;;;;;5010182;28;20206;-78
2023/06/17 02:18:25;;;;;;;5.23;3.67;;;19.60;47.40;;;;;;5010094;28;20217;-78
2023/06/17 02:20:51;;;;;;;3.53;3.00;;;19.60;47.60;;;;;;5009131;28;20258;-78
2023/06/17 02:23:16;;;;;;;5.23;4.30;;;19.60;47.70;;;;;;5026615;28;20725;-78
2023/06/17 02:25:42;;;;;;;4.80;4.30;;;19.50;47.80;;;;;;5009903;28;20685;-78
2023/06/17 02:28:08;;;;;;;4.00;3.10;;;19.50;47.90;;;;;;5009950;28;20695;-78
2023/06/17 02:30:34;;;;;;;3.57;3.10;;;19.50;48.00;;;;;;4993094;28;20244;-78
2023/06/17 02:33:00;;;;;;;4.03;3.50;;;19.50;48.10;;;;;;5009783;28;20679;-78
2023/06/17 02:35:27;;;;;;;4.73;3.73;;;19.50;48.20;;;;;;5002976;28;20809;-78
2023/06/17 02:37:57;;;;;;;5.77;3.70;;;19.50;48.30;;;;;;4990616;28;20637;-78
2023/06/17 02:40:23;;;;;;;5.17;3.93;;;19.40;48.50;;;;;;4989827;28;20586;-78
2023/06/17 02:42:52;;;;;;;6.30;3.70;;;19.40;48.50;;;;;;4989806;28;20669;-78
2023/06/17 02:45:18;;;;;;;4.17;3.10;;;19.30;48.50;;;;;;4990197;28;20583;-78
2023/06/17 02:47:45;;;;;;;4.40;3.53;;;19.30;48.60;;;;;;4989889;28;20229;-78
2023/06/17 02:50:11;;;;;;;4.87;3.50;;;19.30;48.80;;;;;;4989510;28;20586;-79
2023/06/17 02:52:37;;;;;;;4.47;3.77;;;19.30;48.90;;;;;;4989499;28;20234;-78
2023/06/17 02:55:06;;;;;;;4.20;3.73;;;19.20;49.00;;;;;;4973440;28;20689;-78
2023/06/17 02:57:32;;;;;;;4.20;3.80;;;19.20;49.10;;;;;;4973351;28;20641;-78
2023/06/17 02:59:57;;;;;;;6.20;4.30;;;19.20;49.20;;;;;;4989394;28;20669;-79
2023/06/17 03:02:24;;;;;;;4.43;3.07;;;19.20;49.20;;;;;;4973713;28;20324;-79
2023/06/17 03:04:53;;;;;;;3.87;2.90;;;19.10;49.10;;;;;;4990112;28;20673;-79
2023/06/17 03:07:19;;;;;;;4.50;3.07;;;19.10;49.20;;;;;;4989761;28;20210;-79
2023/06/17 03:09:46;;;;;;;4.10;3.50;;;19.10;49.40;;;;;;4989921;28;20590;-78
2023/06/17 03:12:12;;;;;;;3.87;3.43;;;19.10;49.40;;;;;;4988728;28;20583;-78
2023/06/17 03:14:38;;;;;;;5.70;3.87;;;19.00;49.20;;;;;;4972866;28;20175;-78
2023/06/17 03:17:10;;;;;;;4.37;3.70;;;19.00;49.20;;;;;;4973669;28;20650;-78
2023/06/17 03:19:37;;;;;;;4.83;3.50;;;18.90;49.20;;;;;;4972949;28;20698;-79
2023/06/17 03:22:03;;;;;;;6.03;3.60;;;19.00;49.30;;;;;;4988902;28;20998;-78
2023/06/17 03:24:31;;;;;;;5.07;3.23;;;18.90;49.30;;;;;;4973066;28;20625;-78
2023/06/17 03:26:58;;;;;;;3.57;3.13;;;18.90;49.30;;;;;;4989259;28;20985;-78
2023/06/17 03:29:24;;;;;;;4.53;4.13;;;18.90;49.40;;;;;;4972928;28;20914;-78
2023/06/17 03:31:56;;;;;;;5.90;3.67;;;18.90;49.40;;;;;;4988281;28;20606;-78
2023/06/17 03:34:24;;;;;;;4.00;3.60;;;18.90;49.50;;;;;;4972158;28;20601;-78
2023/06/17 03:36:50;;;;;;;3.53;2.73;;;18.90;49.50;;;;;;5002514;28;20620;-79
2023/06/17 03:39:16;;;;;;;6.30;3.77;;;18.90;49.60;;;;;;4992809;28;20616;-78
2023/06/17 03:41:42;;;;;;;3.97;3.20;;;18.90;49.60;;;;;;5008098;28;21171;-78
2023/06/17 03:44:08;;;;;;;4.00;2.83;;;18.90;49.60;;;;;;5008994;28;20170;-78
2023/06/17 03:46:34;;;;;;;4.80;3.23;;;18.90;49.60;;;;;;5008316;28;20615;-78
2023/06/17 03:49:02;;;;;;;3.57;2.80;;;18.90;49.60;;;;;;5009039;28;20927;-79
2023/06/17 03:51:28;;;;;;;5.40;3.17;;;18.90;49.60;;;;;;5007769;28;20585;-79
2023/06/17 03:53:53;;;;;;;5.43;4.03;;;18.90;49.70;;;;;;4992621;28;20984;-79
2023/06/17 03:56:20;;;;;;;6.67;3.30;;;18.90;49.70;;;;;;5008315;28;20728;-79
2023/06/17 03:58:46;;;;;;;5.70;3.23;;;18.90;49.80;;;;;;5010064;28;20739;-78
2023/06/17 04:01:13;;;;;;;4.57;3.43;;;18.90;50.00;;;;;;5007554;28;20231;-79
2023/06/17 04:03:40;;;;;;;4.50;3.37;;;18.90;50.00;;;;;;4992437;28;20581;-79
2023/06/17 04:06:06;;;;;;;5.17;3.73;;;19.00;50.00;;;;;;4992218;28;20617;-79
2023/06/17 04:08:36;;;;;;;3.80;3.40;;;19.00;50.10;;;;;;5008345;28;20605;-79
2023/06/17 04:11:02;;;;;;;4.77;3.20;;;19.00;50.10;;;;;;5007832;28;20635;-79
2023/06/17 04:13:28;;;;;;;5.83;3.63;;;19.10;50.80;;;;;;5009176;28;20582;-79
2023/06/17 04:15:54;;;;;;;4.00;3.23;;;19.10;50.30;;;;;;5008527;28;20747;-79
2023/06/17 04:18:20;;;;;;;4.17;3.10;;;19.10;50.30;;;;;;4991985;28;20660;-78
2023/06/17 04:20:46;;;;;;;5.33;3.60;;;19.20;50.60;;;;;;5008312;28;20648;-79
2023/06/17 04:23:12;;;;;;;3.90;3.50;;;19.20;50.50;;;;;;4991480;28;20578;-79
2023/06/17 04:25:38;;;;;;;5.03;3.20;;;19.20;50.60;;;;;;5008588;28;20616;-79
2023/06/17 04:28:07;;;;;;;4.13;3.13;;;19.30;50.90;;;;;;4997353;28;20618;-79
2023/06/17 04:30:34;;;;;;;5.40;3.77;;;19.40;51.10;;;;;;4972466;28;20630;-79
2023/06/17 04:33:00;;;;;;;3.80;3.40;;;19.60;51.50;;;;;;4972719;28;20618;-78
2023/06/17 04:35:28;;;;;;;4.60;3.80;;;19.80;51.80;;;;;;4990170;28;20625;-79
2023/06/17 04:37:55;;;;;;;4.13;3.73;;;20.00;52.00;;;;;;5008360;28;21013;-78
2023/06/17 04:40:23;;;;;;;5.20;4.47;;;20.10;52.00;;;;;;5006993;28;20635;-78
2023/06/17 04:42:49;;;;;;;5.03;4.57;;;20.30;52.20;;;;;;4991406;28;20581;-78
2023/06/17 04:45:17;;;;;;;4.83;3.60;;;20.40;52.20;;;;;;5007796;28;20581;-79
2023/06/17 04:47:47;;;;;;;5.97;4.30;;;20.40;52.20;;;;;;4992227;28;20613;-78
2023/06/17 04:50:16;;;;;;;4.40;3.90;;;20.50;52.40;;;;;;5007550;28;20577;-79
2023/06/17 04:52:47;;;;;;;5.97;4.70;;;20.60;52.40;;;;;;4992110;28;20933;-78
2023/06/17 04:55:14;;;;;;;7.03;4.07;;;20.70;52.80;;;;;;5007908;28;20671;-78
2023/06/17 04:57:42;;;;;;;5.70;4.50;;;20.90;53.10;;;;;;5009260;28;20624;-78
2023/06/17 05:00:10;;;;;;;4.73;4.03;;;21.00;53.20;;;;;;5010748;28;20639;-79
2023/06/17 05:02:39;;;;;;;5.63;5.00;;;21.10;53.10;;;;;;5011645;28;20597;-79
2023/06/17 05:05:05;;;;;;;6.50;4.10;;;21.20;53.20;;;;;;4995584;28;20577;-79
2023/06/17 05:07:32;;;;;;;5.43;4.60;;;21.30;53.20;;;;;;4995125;28;20590;-79
2023/06/17 05:09:59;;;;;;;6.53;4.43;;;21.50;53.30;;;;;;5011408;28;21051;-79
2023/06/17 05:12:24;;;;;;;5.33;4.83;;;21.60;53.40;;;;;;5010905;28;20603;-79
2023/06/17 05:14:53;;;;;;;6.33;4.53;;;21.90;53.60;;;;;;5012959;28;20577;-78
2023/06/17 05:17:20;;;;;;;5.83;5.23;;;22.10;53.60;;;;;;5011089;28;20304;-79
2023/06/17 05:19:45;;;;;;;5.73;4.07;;;22.40;53.60;;;;;;5011700;28;20660;-79
2023/06/17 05:22:12;;;;;;;4.97;4.47;;;22.60;53.30;;;;;;5010319;28;20173;-79
2023/06/17 05:24:38;;;;;;;6.57;4.30;;;22.80;53.20;;;;;;4998528;28;20601;-79
2023/06/17 05:27:08;;;;;;;5.83;5.17;;;22.90;53.20;;;;;;4990812;28;20622;-79
2023/06/17 05:29:34;;;;;;;10.93;5.40;;;22.90;52.90;;;;;;4975772;28;20677;-79
2023/06/17 05:32:04;;;;;;;5.37;4.87;;;22.90;52.70;;;;;;4991227;28;20625;-79
2023/06/17 05:34:29;;;;;;;6.07;5.00;;;23.00;52.70;;;;;;4992638;28;20610;-79
2023/06/17 05:36:55;;;;;;;5.53;5.03;;;23.00;52.70;;;;;;4989129;28;20647;-78
2023/06/17 05:39:21;;;;;;;5.63;4.23;;;23.10;52.90;;;;;;5010948;28;20582;-79
2023/06/17 05:41:47;;;;;;;5.77;5.27;;;23.20;52.80;;;;;;5010641;28;20583;-79
2023/06/17 05:44:15;;;;;;;6.20;4.80;;;23.40;53.00;;;;;;4994471;28;20908;-79
2023/06/17 05:46:41;;;;;;;5.57;4.70;;;23.60;53.30;;;;;;5011159;28;20701;-79
2023/06/17 05:49:07;;;;;;;5.97;5.40;;;23.80;53.20;;;;;;5010643;28;20181;-79
2023/06/17 05:51:32;;;;;;;6.63;5.30;;;23.90;52.90;;;;;;5011748;28;20220;-79
2023/06/17 05:53:59;;;;;;;5.73;5.23;;;24.10;52.80;;;;;;4994316;28;20252;-79
2023/06/17 05:56:26;;;;;;;6.47;5.87;;;24.40;53.10;;;;;;5010964;28;20609;-79
2023/06/17 05:58:51;;;;;;;5.23;4.27;;;25.00;53.70;;;;;;5010504;28;20710;-78
2023/06/17 06:01:43;;;;;;;5.50;4.97;;;25.60;54.00;;;;;;4995669;28;20740;-78
2023/06/17 06:04:09;;;;;;;5.13;4.63;;;26.40;54.70;;;;;;5010658;28;20608;-79
2023/06/17 06:06:34;;;;;;;6.13;4.80;;;27.20;53.90;;;;;;4994163;28;20194;-80
2023/06/17 06:09:00;;;;;;;7.80;4.47;;;28.00;53.40;;;;;;5010163;28;20181;-78
2023/06/17 06:11:26;;;;;;;5.20;4.80;;;28.70;52.80;;;;;;4976926;28;20178;-79
2023/06/17 06:13:53;;;;;;;5.87;4.70;;;29.50;52.00;;;;;;5010460;28;20600;-79
2023/06/17 06:16:19;;;;;;;6.57;4.63;;;30.30;51.10;;;;;;5010048;28;20955;-79
2023/06/17 06:18:45;;;;;;;5.10;4.60;;;30.90;50.10;;;;;;5010292;28;20240;-77
2023/06/17 06:21:11;;;;;;;5.10;4.60;;;31.50;49.30;;;;;;4993902;28;20664;-78
2023/06/17 06:23:37;;;;;;;5.50;4.47;;;32.10;48.20;;;;;;4974588;28;20176;-78
2023/06/17 06:26:02;;;;;;;6.57;5.00;;;32.50;47.20;;;;;;4990383;28;20290;-78
2023/06/17 06:28:29;;;;;;;5.60;5.00;;;32.90;46.50;;;;;;4974404;28;20639;-78
2023/06/17 06:30:55;;;;;;;4.77;4.33;;;33.40;45.00;;;;;;4990459;28;21380;-78
2023/06/17 06:33:22;;;;;;;5.03;4.57;;;33.70;44.90;;;;;;4990186;28;20563;-78
2023/06/17 06:35:49;;;;;;;5.87;4.37;;;34.10;44.40;;;;;;4994807;28;20617;-78
2023/06/17 06:38:17;;;;;;;5.07;4.67;;;34.50;43.80;;;;;;4993265;28;20625;-78
2023/06/17 06:40:43;;;;;;;7.30;4.50;;;34.90;43.80;;;;;;5009371;28;20589;-78
2023/06/17 06:43:10;;;;;;;5.20;4.30;;;35.30;42.70;;;;;;4993063;28;20624;-78
2023/06/17 06:45:56;;;;;;;5.13;4.63;;;35.60;42.00;;;;;;5011133;28;20617;-79
2023/06/17 06:48:22;;;;;;;4.40;4.00;;;35.90;41.50;;;;;;4993639;28;20586;-79
2023/06/17 06:50:49;;;;;;;4.67;3.90;;;36.30;41.10;;;;;;5009705;28;20647;-79
2023/06/17 06:53:15;;;;;;;4.90;4.50;;;36.60;40.60;;;;;;4992883;28;20581;-79
2023/06/17 06:55:41;;;;;;;5.93;4.70;;;36.90;39.80;;;;;;5009301;28;20705;-80
2023/06/17 06:58:07;;;;;;;4.00;3.60;;;37.20;39.30;;;;;;5009278;28;20711;-81
2023/06/17 07:00:33;;;;;;;4.40;3.87;;;37.40;39.00;;;;;;5008909;28;20181;-80
2023/06/17 07:02:59;;;;;;;6.03;4.67;;;37.70;38.60;;;;;;5009180;28;20589;-80
2023/06/17 07:05:25;;;;;;;4.83;3.87;;;37.80;37.90;;;;;;4992779;28;20314;-80
2023/06/17 07:08:00;;;;;;;4.87;4.43;;;38.00;37.70;;;;;;5009926;28;20256;-80
2023/06/17 07:10:26;;;;;;;5.70;4.10;;;38.10;36.90;;;;;;5008463;28;20585;-79
2023/06/17 07:12:52;;;;;;;6.97;3.80;;;38.30;36.80;;;;;;5009389;28;20585;-80
2023/06/17 07:15:18;;;;;;;5.50;5.00;;;38.50;37.10;;;;;;4993074;28;20190;-79
2023/06/17 07:17:46;;;;;;;4.40;4.00;;;38.60;36.00;;;;;;4975756;28;20605;-79
2023/06/17 07:20:15;;;;;;;5.13;3.90;;;38.80;35.80;;;;;;4988547;28;20962;-79
2023/06/17 07:22:43;;;;;;;4.57;4.00;;;38.80;35.10;;;;;;4972589;28;20594;-80
2023/06/17 07:25:09;;;;;;;5.00;4.07;;;38.90;35.00;;;;;;4972270;28;20583;-81
2023/06/17 07:27:36;;;;;;;4.60;4.17;;;39.00;34.90;;;;;;4989219;28;20633;-80
2023/06/17 07:30:02;;;;;;;6.03;4.10;;;39.20;34.40;;;;;;4989289;28;21176;-80
2023/06/17 07:32:28;;;;;;;4.70;4.00;;;39.40;34.30;;;;;;4988567;28;20594;-80
2023/06/17 07:34:55;;;;;;;4.17;3.77;;;39.70;34.10;;;;;;4989391;28;20672;-79
2023/06/17 07:37:20;;;;;;;3.90;3.20;;;39.90;33.80;;;;;;5006062;28;21139;-80
2023/06/17 07:39:47;;;;;;;3.63;3.33;;;40.10;33.60;;;;;;5010271;28;20667;-80
2023/06/17 07:42:19;;;;;;;4.40;3.70;;;40.40;33.30;;;;;;5009253;28;20609;-80
2023/06/17 07:44:45;;;;;;;3.57;3.20;;;40.50;33.50;;;;;;5010273;28;20170;-80
2023/06/17 07:47:11;;;;;;;3.80;3.20;;;40.80;32.80;;;;;;5008198;28;20623;-80
2023/06/17 07:49:36;;;;;;;5.43;4.93;;;41.00;32.40;;;;;;5009249;28;20260;-79
2023/06/17 07:52:03;;;;;;;4.93;3.97;;;41.20;32.00;;;;;;5023987;28;20167;-79
2023/06/17 07:54:29;;;;;;;4.53;4.13;;;41.20;31.30;;;;;;5009746;28;20264;-81
2023/06/17 07:56:54;;;;;;;4.80;2.83;;;41.20;30.80;;;;;;5010310;28;20640;-80
2023/06/17 07:59:20;;;;;;;3.40;3.10;;;41.20;30.60;;;;;;5009951;28;20177;-81
2023/06/17 08:01:46;;;;;;;4.60;3.43;;;41.20;30.30;;;;;;5008070;28;20190;-80
2023/06/17 08:04:11;;;;;;;3.60;3.07;;;41.20;30.00;;;;;;4992159;28;20166;-80
2023/06/17 08:06:37;;;;;;;3.30;3.00;;;41.10;29.90;;;;;;5010316;28;20220;-79
2023/06/17 08:09:03;;;;;;;2.70;2.50;;;41.10;29.40;;;;;;5008150;28;20205;-79
2023/06/17 08:11:29;;;;;;;3.30;2.43;;;41.20;29.70;;;;;;5009306;28;20178;-79
2023/06/17 08:13:54;;;;;;;3.73;2.63;;;41.30;29.80;;;;;;5007573;28;20606;-79
2023/06/17 08:16:20;;;;;;;2.90;2.60;;;41.50;29.60;;;;;;4990288;28;20199;-79
2023/06/17 08:18:46;;;;;;;3.13;2.83;;;41.70;29.50;;;;;;4988774;28;20171;-79
2023/06/17 08:21:12;;;;;;;3.50;3.17;;;41.80;29.00;;;;;;4991188;28;20258;-79
2023/06/17 08:23:38;;;;;;;4.10;2.90;;;42.00;28.70;;;;;;4992994;28;20631;-79
2023/06/17 08:26:04;;;;;;;4.47;3.00;;;42.10;28.80;;;;;;4989040;28;20618;-79
2023/06/17 08:28:30;;;;;;;6.03;2.90;;;42.20;28.70;;;;;;4990320;28;20199;-80
2023/06/17 08:30:56;;;;;;;2.77;2.43;;;42.30;28.50;;;;;;4989581;28;20581;-80
2023/06/17 08:33:22;;;;;;;4.80;3.17;;;42.40;28.50;;;;;;5007520;28;20233;-79
2023/06/17 08:35:48;;;;;;;3.57;3.27;;;42.60;28.40;;;;;;4998150;28;20974;-80
2023/06/17 08:38:13;;;;;;;2.80;2.57;;;42.70;27.80;;;;;;5012160;28;20434;-80
2023/06/17 08:40:45;;;;;;;3.00;2.70;;;42.70;27.80;;;;;;5012914;28;20182;-80
2023/06/17 08:43:14;;;;;;;4.47;2.40;;;42.80;27.20;;;;;;5013587;28;20191;-80
2023/06/17 08:45:41;;;;;;;2.77;2.10;;;42.80;27.30;;;;;;5011779;28;20700;-80
2023/06/17 08:48:07;;;;;;;3.07;2.30;;;42.90;27.40;;;;;;5011995;28;20663;-80
2023/06/17 08:50:33;;;;;;;2.70;2.50;;;42.90;27.40;;;;;;5011801;28;20944;-81
2023/06/17 08:52:59;;;;;;;2.77;2.17;;;43.00;27.00;;;;;;5012460;28;20605;-80
2023/06/17 08:55:24;;;;;;;2.63;2.43;;;43.10;26.90;;;;;;5012190;28;20636;-79
2023/06/17 08:57:53;;;;;;;2.93;2.60;;;43.10;26.60;;;;;;5012969;28;20178;-79
2023/06/17 09:00:19;;;;;;;4.50;2.60;;;43.20;26.70;;;;;;5018468;28;20178;-79
2023/06/17 09:02:47;;;;;;;2.63;2.40;;;43.20;26.50;;;;;;5012615;28;20572;-80
2023/06/17 09:05:13;;;;;;;2.80;2.60;;;43.30;26.50;;;;;;5011876;28;20232;-78
2023/06/17 09:07:39;;;;;;;2.60;2.40;;;43.30;26.20;;;;;;5012605;28;20621;-79
2023/06/17 09:10:07;;;;;;;2.77;2.57;;;43.20;25.80;;;;;;4978428;28;20206;-79
2023/06/17 09:12:39;;;;;;;2.40;2.20;;;43.20;25.90;;;;;;4992683;28;21311;-78
2023/06/17 09:15:14;;;;;;;3.23;2.50;;;43.10;26.10;;;;;;4993538;28;20576;-80
2023/06/17 09:17:43;;;;;;;3.47;2.73;;;43.00;25.30;;;;;;4991714;28;20586;-80
2023/06/17 09:20:14;;;;;;;5.83;2.63;;;43.00;25.30;;;;;;4992583;28;20683;-80
2023/06/17 09:22:45;;;;;;;2.77;2.57;;;43.00;25.70;;;;;;4993235;28;20669;-79
2023/06/17 09:25:13;;;;;;;2.80;2.50;;;43.00;25.40;;;;;;4992804;28;20681;-80
2023/06/17 09:27:53;;;;;;;2.53;2.33;;;43.00;25.50;;;;;;4991896;28;20674;-79
2023/06/17 09:30:22;;;;;;;4.10;2.40;;;42.90;25.40;;;;;;4992545;28;20585;-79
2023/06/17 09:33:00;;;;;;;2.30;2.00;;;43.00;25.10;;;;;;4975328;28;20589;-80
2023/06/17 09:35:26;;;;;;;3.20;2.27;;;42.90;25.10;;;;;;4992581;28;20608;-78
2023/06/17 09:37:53;;;;;;;2.70;2.40;;;42.70;25.10;;;;;;5012360;28;21231;-80
2023/06/17 09:40:19;;;;;;;2.83;2.53;;;42.70;25.00;;;;;;4994201;28;20186;-80
2023/06/17 09:42:46;;;;;;;3.70;2.60;;;42.70;25.00;;;;;;5012327;28;20666;-79
2023/06/17 09:45:23;;;;;;;2.87;2.07;;;42.90;25.40;;;;;;4993293;28;20593;-80
2023/06/17 09:47:53;;;;;;;2.83;2.30;;;43.00;25.30;;;;;;5027535;28;20689;-80
2023/06/17 09:50:22;;;;;;;2.57;2.37;;;43.10;25.10;;;;;;5010189;28;20569;-79
2023/06/17 09:52:52;;;;;;;4.03;2.63;;;43.20;25.20;;;;;;5011892;28;21019;-80
2023/06/17 09:55:20;;;;;;;2.43;2.23;;;43.30;25.00;;;;;;5011923;28;20936;-80
2023/06/17 09:57:47;;;;;;;2.60;2.20;;;43.20;24.60;;;;;;4994804;28;20589;-79
2023/06/17 10:00:14;;;;;;;3.10;2.33;;;43.20;24.60;;;;;;5010215;28;20676;-79
2023/06/17 10:02:43;;;;;;;2.37;2.10;;;43.10;24.50;;;;;;5011509;28;21099;-80
2023/06/17 10:05:12;;;;;;;2.87;2.63;;;43.10;24.40;;;;;;5005079;28;20677;-79
2023/06/17 10:07:41;;;;;;;2.43;2.23;;;43.00;24.40;;;;;;4992209;28;20617;-78
2023/06/17 10:10:09;;;;;;;3.60;2.47;;;43.10;24.50;;;;;;4992078;28;20598;-80
2023/06/17 10:12:38;;;;;;;3.60;1.83;;;43.10;24.60;;;;;;4990575;28;20689;-80
2023/06/17 10:15:05;;;;;;;3.03;1.70;;;43.00;24.40;;;;;;4991146;28;21102;-81
2023/06/17 10:17:33;;;;;;;3.97;2.10;;;43.00;24.50;;;;;;4990747;28;20617;-80
2023/06/17 10:20:05;;;;;;;4.80;2.30;;;43.00;24.20;;;;;;4990351;28;20590;-81
2023/06/17 10:22:34;;;;;;;3.80;2.70;;;43.10;24.00;;;;;;4991369;28;20585;-80
2023/06/17 10:25:00;;;;;;;5.33;2.40;;;43.00;24.00;;;;;;4992197;28;21129;-79
2023/06/17 10:27:28;;;;;;;8.47;2.93;;;42.90;23.90;;;;;;4990639;28;20641;-80
2023/06/17 10:29:57;;;;;;;2.50;1.67;;;42.90;23.90;;;;;;4992006;28;20601;-80
2023/06/17 10:32:26;;;;;;;2.47;2.27;;;42.80;23.40;;;;;;4990712;28;20796;-80
2023/06/17 10:35:12;;;;;;;3.07;2.40;;;42.60;23.50;;;;;;4989774;28;20678;-80
2023/06/17 10:37:50;;;;;;;3.23;2.57;;;42.40;23.50;;;;;;4971415;28;20579;-80
2023/06/17 10:40:25;;;;;;;10.33;3.00;;;42.20;23.70;;;;;;4954410;28;20593;-80
2023/06/17 10:43:17;;;;;;;3.37;2.30;;;42.10;23.80;;;;;;4971996;28;20574;-81
2023/06/17 10:45:49;;;;;;;2.30;1.90;;;41.90;23.60;;;;;;4970633;28;20938;-81
2023/06/17 10:48:20;;;;;;;2.47;1.90;;;41.80;23.70;;;;;;4971081;28;20631;-82
2023/06/17 10:51:10;;;;;;;2.50;2.00;;;41.70;23.60;;;;;;4972525;28;20583;-82
2023/06/17 10:53:37;;;;;;;2.73;2.10;;;41.70;23.40;;;;;;4956514;28;20662;-82
2023/06/17 10:56:04;;;;;;;4.80;2.13;;;41.50;23.40;;;;;;4970424;28;20610;-82
2023/06/17 10:58:33;;;;;;;2.30;2.00;;;41.40;23.50;;;;;;4970953;28;20638;-82
2023/06/17 11:01:07;;;;;;;1.83;1.50;;;41.30;23.30;;;;;;4975369;28;21021;-82
2023/06/17 11:03:34;;;;;;;2.20;1.80;;;41.20;22.90;;;;;;4990881;28;20594;-81
2023/06/17 11:06:03;;;;;;;2.30;1.80;;;40.90;23.10;;;;;;4973504;28;20614;-82
2023/06/17 11:08:31;;;;;;;3.10;2.30;;;40.90;23.30;;;;;;4990245;28;21111;-82
2023/06/17 11:11:23;;;;;;;3.20;2.10;;;40.90;23.40;;;;;;4973289;28;20632;-82
2023/06/17 11:13:51;;;;;;;3.77;1.83;;;40.80;23.70;;;;;;4972612;28;20586;-82
2023/06/17 11:16:18;;;;;;;4.13;2.93;;;40.90;23.70;;;;;;4989782;28;20753;-82
2023/06/17 11:18:47;;;;;;;4.80;2.60;;;40.90;23.80;;;;;;4990525;28;20826;-81
2023/06/17 11:21:15;;;;;;;3.67;2.40;;;40.90;23.70;;;;;;4990806;28;20570;-82
2023/06/17 11:23:42;;;;;;;4.23;2.13;;;40.90;23.30;;;;;;4990079;28;21153;-82
2023/06/17 11:26:09;;;;;;;1.97;1.57;;;40.80;23.00;;;;;;4989846;28;20622;-82
2023/06/17 11:28:35;;;;;;;1.93;1.57;;;40.80;22.80;;;;;;4989127;28;20645;-82
2023/06/17 11:31:01;;;;;;;2.03;1.77;;;40.60;22.50;;;;;;4989244;28;20578;-82
2023/06/17 11:33:28;;;;;;;2.10;1.60;;;40.50;22.20;;;;;;5006087;28;20583;-82
2023/06/17 11:35:54;;;;;;;2.33;2.13;;;40.40;22.10;;;;;;4996577;28;20681;-82
2023/06/17 11:38:35;;;;;;;2.40;1.87;;;40.30;22.10;;;;;;5009442;28;21167;-82
2023/06/17 11:41:01;;;;;;;3.83;2.10;;;40.20;22.30;;;;;;4992465;28;20600;-82
2023/06/17 11:43:34;;;;;;;2.10;1.83;;;40.20;22.70;;;;;;5008416;28;20612;-83
2023/06/17 11:46:07;;;;;;;2.37;2.00;;;40.10;22.70;;;;;;5009135;28;20202;-82
2023/06/17 11:48:36;;;;;;;2.10;1.63;;;40.00;22.70;;;;;;5009495;28;20628;-81
2023/06/17 11:51:02;;;;;;;2.03;1.80;;;39.80;22.40;;;;;;5008149;28;20577;-82
2023/06/17 11:53:36;;;;;;;2.87;2.30;;;39.60;22.40;;;;;;4991956;28;20589;-83
2023/06/17 11:56:07;;;;;;;3.67;1.70;;;39.40;22.40;;;;;;5008545;28;20651;-82
2023/06/17 11:58:34;;;;;;;4.80;1.80;;;39.20;22.30;;;;;;4994653;28;20622;-82
2023/06/17 12:01:00;;;;;;;2.40;1.50;;;39.00;22.60;;;;;;4988469;28;20629;-81
2023/06/17 12:03:30;;;;;;;2.63;1.70;;;38.90;22.50;;;;;;4973267;28;20614;-82
2023/06/17 12:06:02;;;;;;;4.03;2.30;;;38.70;22.60;;;;;;4990081;28;20645;-81
2023/06/17 12:08:33;;;;;;;4.33;1.87;;;38.60;22.40;;;;;;4975805;28;21019;-81
2023/06/17 12:11:09;;;;;;;2.17;1.80;;;38.50;22.80;;;;;;4993052;28;20574;-82
2023/06/17 12:13:39;;;;;;;2.40;2.17;;;38.50;22.80;;;;;;4999082;28;20585;-82
2023/06/17 12:16:36;;;;;;;3.20;1.70;;;38.40;22.60;;;;;;5008998;28;20652;-82
2023/06/17 12:19:06;;;;;;;3.73;1.93;;;38.30;22.70;;;;;;4993072;28;20586;-82
2023/06/17 12:21:36;;;;;;;3.30;2.00;;;38.10;22.70;;;;;;4976155;28;20621;-81
2023/06/17 12:24:03;;;;;;;3.20;2.00;;;38.00;22.80;;;;;;4993334;28;20640;-81
2023/06/17 12:26:31;;;;;;;2.53;1.60;;;37.90;22.80;;;;;;4993861;28;20609;-82
2023/06/17 12:28:57;;;;;;;3.03;1.73;;;37.70;22.80;;;;;;4993968;28;20789;-82
2023/06/17 12:31:24;;;;;;;2.40;1.70;;;37.50;22.70;;;;;;4991981;28;20582;-82
2023/06/17 12:33:50;;;;;;;3.70;1.90;;;37.40;22.60;;;;;;4992890;28;20620;-83
2023/06/17 12:36:19;;;;;;;3.43;1.83;;;37.20;22.50;;;;;;5002221;28;20652;-80
2023/06/17 12:38:45;;;;;;;3.00;2.40;;;37.00;22.50;;;;;;5012658;28;20188;-81
2023/06/17 12:41:11;;;;;;;3.10;2.13;;;36.70;22.50;;;;;;5011754;28;20692;-81
2023/06/17 12:43:38;;;;;;;3.47;2.37;;;36.30;22.60;;;;;;5013618;28;20566;-81
2023/06/17 12:46:07;;;;;;;3.00;1.73;;;36.00;22.70;;;;;;5013866;28;20616;-82
2023/06/17 12:48:35;;;;;;;3.37;2.00;;;35.60;22.70;;;;;;5011879;28;20647;-82